Rockford, IL (61101)

4:41 AM CDT on April 27, 2017 (GMT -0500)
Ingersoll Golf Course | | Change Station

Elev 810 ft 42.28 °N, 89.15 °W | Updated 6 seconds ago

Rain
Rain
45.3 °F
Feels Like 43 °F
N
4.5
Wind Variable Wind from WNW
Gusts 4.9 mph

Today
High -- | Low -- °F
--% Chance of Precip.
Yesterday
High -- | Low -- °F
Precip. -- in
Pressure 29.37 in
Visibility 3.0 miles
Clouds Mostly Cloudy 700 ft
Overcast 1500 ft
Windchill 43 °F
Dew Point 45 °F
Humidity 99%
Rainfall 0.58 in
Snow Depth Not available.
5:56 AM 7:51 PM
New Moon, 1% visible
METAR KRFD 270854Z 31013KT 3SM RA BR BKN007 OVC015 09/08 A2936 RMK AO2 SLP943 P0011 60027 T00940078 56023
Pressure 29.37 in
Visibility 3.0 miles
Clouds Mostly Cloudy 700 ft
Overcast 1500 ft
Windchill 43 °F
Dew Point 45 °F
Humidity 99%
Rainfall 0.58 in
Snow Depth Not available.
5:56 AM 7:51 PM
New Moon, 1% visible
METAR KRFD 270854Z 31013KT 3SM RA BR BKN007 OVC015 09/08 A2936 RMK AO2 SLP943 P0011 60027 T00940078 56023

Get Severe Weather Alerts

Thanks for signing up!

Be on the lookout for a verification email in your inbox.

You'll start receiving the daily forecast at 8 AM.

×

10-Day Weather Forecast

Almanac

Astronomy

Apr. 27, 2017 Rise Set
Actual Time
Civil Twilight
Nautical Twilight
Astronomical Twilight
Moon
Length of Visible Light
Length of Day
Tomorrow will be .
, % of the Moon is Illuminated

Today's Extremes

State Highs State Lows

Community

WunderPhotos

WunderBlog® & News

Nearby

Air Quality

  Air Quality AQ Index Pollutant
Not available.

Snow Depth

Station Depth Elevation

Earthquake Activity

City Distance Mag. Time & Date
Minimum magnitude displayed is 2.5.

Coastal Water Temperatures

Place Temperature

Stations

Nearby Weather Stations

Station Location Temp. Windchill Dew Point Humidity Wind Precip. Elev Updated Type
                   

Watches & Warnings

There are currently no watches in effect.